createdAt,value
2022-08-26T00:01:57.448Z,14.00
2022-08-26T00:04:26.603Z,15.67
2022-08-26T00:06:55.561Z,15.00
2022-08-26T00:09:24.940Z,15.00
2022-08-26T00:11:54.051Z,16.00
2022-08-26T00:14:26.043Z,15.67
2022-08-26T00:16:57.811Z,16.33
2022-08-26T00:19:25.650Z,15.67
2022-08-26T00:21:53.648Z,15.00
2022-08-26T00:24:21.868Z,15.00
2022-08-26T00:26:50.201Z,15.00
2022-08-26T00:29:21.314Z,15.00
2022-08-26T00:31:50.497Z,17.00
2022-08-26T00:34:19.240Z,16.00
2022-08-26T00:36:49.240Z,15.50
2022-08-26T00:39:20.577Z,17.00
2022-08-26T00:41:48.900Z,15.00
2022-08-26T00:44:17.210Z,17.00
2022-08-26T00:46:47.179Z,16.00
2022-08-26T00:49:17.725Z,16.67
2022-08-26T00:51:47.996Z,16.33
2022-08-26T00:54:17.396Z,15.00
2022-08-26T00:57:05.511Z,16.00
2022-08-26T00:59:45.455Z,13.67
2022-08-26T01:02:20.858Z,14.67
2022-08-26T01:04:56.012Z,16.00
2022-08-26T01:07:26.169Z,16.33
2022-08-26T01:09:56.302Z,17.00
2022-08-26T01:12:25.308Z,19.00
2022-08-26T01:14:54.008Z,14.00
2022-08-26T01:17:21.878Z,14.33
2022-08-26T01:19:57.552Z,16.00
2022-08-26T01:22:30.174Z,16.67
2022-08-26T01:25:03.428Z,17.00
2022-08-26T01:27:32.917Z,16.00
2022-08-26T01:30:02.461Z,16.00
2022-08-26T01:32:31.993Z,17.00
2022-08-26T01:35:01.008Z,16.00
2022-08-26T01:37:33.213Z,18.00
2022-08-26T01:40:01.272Z,15.00
2022-08-26T01:42:29.370Z,14.00
2022-08-26T01:45:09.755Z,14.33
2022-08-26T01:47:38.303Z,15.00
2022-08-26T01:50:09.489Z,15.00
2022-08-26T01:52:39.670Z,14.00
2022-08-26T01:55:08.951Z,13.67
2022-08-26T01:57:37.321Z,17.00
2022-08-26T02:00:07.303Z,16.67
2022-08-26T02:02:41.549Z,14.00
2022-08-26T02:05:14.724Z,15.00
2022-08-26T02:07:43.411Z,18.00
2022-08-26T02:10:12.041Z,19.00
2022-08-26T02:12:40.061Z,16.00
2022-08-26T02:15:11.189Z,17.67
2022-08-26T02:17:48.071Z,15.00
2022-08-26T02:20:21.772Z,16.00
2022-08-26T02:22:50.382Z,15.67
2022-08-26T02:25:21.059Z,15.00
2022-08-26T02:27:49.018Z,15.00
2022-08-26T02:30:19.183Z,13.67
2022-08-26T02:32:47.140Z,16.33
2022-08-26T02:35:20.295Z,14.50
2022-08-26T02:37:49.407Z,14.33
2022-08-26T02:40:19.139Z,14.00
2022-08-26T02:42:47.331Z,16.00
2022-08-26T02:45:16.775Z,15.33
2022-08-26T02:47:52.590Z,15.00
2022-08-26T02:50:22.343Z,16.00
2022-08-26T02:52:50.169Z,18.00
2022-08-26T02:55:18.361Z,14.67
2022-08-26T02:57:46.968Z,16.00
2022-08-26T03:00:15.474Z,17.00
2022-08-26T03:02:43.682Z,16.50
2022-08-26T03:05:12.065Z,16.00
2022-08-26T03:07:40.054Z,17.00
2022-08-26T03:10:08.968Z,17.33
2022-08-26T03:12:37.182Z,16.00
2022-08-26T03:15:17.671Z,14.00
2022-08-26T03:17:47.251Z,17.00
2022-08-26T03:20:17.325Z,14.67
2022-08-26T03:22:46.086Z,16.00
2022-08-26T03:25:15.458Z,16.00
2022-08-26T03:27:43.443Z,14.33
2022-08-26T03:30:31.137Z,14.33
2022-08-26T03:32:59.969Z,18.00
2022-08-26T03:35:28.099Z,16.00
2022-08-26T03:37:56.049Z,17.67
2022-08-26T03:40:24.926Z,14.00
2022-08-26T03:42:57.111Z,15.00
2022-08-26T03:45:25.740Z,16.33
2022-08-26T03:47:53.723Z,17.00
2022-08-26T03:50:23.169Z,15.00
2022-08-26T03:52:53.453Z,17.00
2022-08-26T03:55:24.477Z,16.00
2022-08-26T03:57:52.731Z,16.00
2022-08-26T04:00:20.912Z,16.00
2022-08-26T04:02:53.241Z,16.00
2022-08-26T04:05:22.002Z,15.67
2022-08-26T04:07:51.547Z,13.33
2022-08-26T04:10:28.736Z,16.00
2022-08-26T04:12:58.916Z,17.00
2022-08-26T04:15:27.336Z,15.00
2022-08-26T04:17:56.063Z,15.00
2022-08-26T04:20:26.489Z,14.33
2022-08-26T04:22:54.256Z,16.00
2022-08-26T04:25:22.629Z,13.00
2022-08-26T04:27:52.421Z,16.33
2022-08-26T04:30:20.450Z,13.00
2022-08-26T04:32:49.538Z,15.00
2022-08-26T04:35:17.954Z,15.00
2022-08-26T04:37:45.941Z,16.00
2022-08-26T04:40:13.756Z,17.00
2022-08-26T04:42:41.716Z,15.33
2022-08-26T04:45:11.704Z,16.50
2022-08-26T04:47:39.862Z,17.00
2022-08-26T04:50:08.396Z,15.00
2022-08-26T04:52:38.929Z,15.00
2022-08-26T04:55:08.372Z,16.00
2022-08-26T04:57:36.822Z,15.67
2022-08-26T05:00:05.829Z,16.00
2022-08-26T05:02:34.379Z,14.00
2022-08-26T05:05:02.603Z,19.67
2022-08-26T05:07:31.458Z,20.33
2022-08-26T05:10:00.284Z,12.00
2022-08-26T05:12:28.898Z,16.00
2022-08-26T05:14:57.037Z,18.00
2022-08-26T05:17:27.355Z,19.00
2022-08-26T05:19:55.545Z,19.00
2022-08-26T05:22:23.314Z,15.67
2022-08-26T05:24:51.126Z,16.67
2022-08-26T05:27:19.811Z,17.00
2022-08-26T05:29:48.342Z,14.00
2022-08-26T05:32:22.459Z,17.00
2022-08-26T05:34:53.470Z,19.33
2022-08-26T05:37:22.172Z,17.50
2022-08-26T05:39:51.418Z,20.00
2022-08-26T05:42:20.175Z,14.00
2022-08-26T05:44:55.668Z,16.00
2022-08-26T05:47:24.719Z,16.00
2022-08-26T05:49:52.811Z,18.00
2022-08-26T05:52:20.801Z,16.33
2022-08-26T05:54:48.543Z,14.67
2022-08-26T05:57:16.274Z,16.33
2022-08-26T05:59:46.396Z,16.33
2022-08-26T06:02:14.781Z,17.33
2022-08-26T06:04:43.513Z,14.67
2022-08-26T06:07:12.025Z,17.67
2022-08-26T06:09:41.549Z,14.67
2022-08-26T06:12:09.813Z,15.00
2022-08-26T06:14:37.606Z,12.33
2022-08-26T06:17:05.746Z,20.00
2022-08-26T06:19:37.403Z,21.67
2022-08-26T06:22:29.230Z,21.50
2022-08-26T06:25:15.403Z,15.67
2022-08-26T06:27:43.570Z,14.67
2022-08-26T06:30:11.928Z,17.33
2022-08-26T06:32:40.351Z,16.00
2022-08-26T06:35:12.147Z,15.00
2022-08-26T06:37:41.113Z,16.00
2022-08-26T06:40:09.533Z,15.00
2022-08-26T06:42:39.748Z,11.33
2022-08-26T06:45:20.760Z,13.67
2022-08-26T06:47:57.165Z,15.00
2022-08-26T06:50:25.108Z,11.33
2022-08-26T06:52:54.321Z,12.00
2022-08-26T06:55:27.163Z,12.33
2022-08-26T06:57:56.043Z,10.00
2022-08-26T07:00:24.062Z,13.00
2022-08-26T07:02:51.929Z,11.00
2022-08-26T07:05:19.708Z,10.00
2022-08-26T07:07:48.291Z,15.00
2022-08-26T07:10:16.260Z,17.00
2022-08-26T07:12:47.205Z,20.00
2022-08-26T07:15:15.398Z,20.00
2022-08-26T07:17:43.668Z,19.00
2022-08-26T07:20:12.009Z,16.00
2022-08-26T07:22:39.766Z,16.00
2022-08-26T07:25:10.531Z,13.00
2022-08-26T07:27:38.421Z,15.33
2022-08-26T07:30:07.428Z,14.00
2022-08-26T07:32:35.574Z,13.00
2022-08-26T07:35:04.094Z,13.00
2022-08-26T07:37:35.504Z,11.00
2022-08-26T07:40:07.657Z,12.00
2022-08-26T07:42:37.350Z,13.00
2022-08-26T07:45:06.196Z,11.67
2022-08-26T07:47:34.118Z,11.33
2022-08-26T07:50:02.474Z,10.67
2022-08-26T07:52:30.541Z,13.00
2022-08-26T07:55:00.056Z,12.00
2022-08-26T07:57:28.463Z,11.00
2022-08-26T07:59:56.296Z,13.00
2022-08-26T08:02:25.266Z,11.00
2022-08-26T08:04:53.690Z,11.67
2022-08-26T08:07:21.859Z,12.33
2022-08-26T08:10:11.499Z,15.67
2022-08-26T08:12:40.517Z,12.00
2022-08-26T08:15:10.023Z,11.33
2022-08-26T08:17:37.792Z,14.00
2022-08-26T08:20:07.418Z,12.00
2022-08-26T08:22:35.621Z,11.00
2022-08-26T08:25:08.156Z,12.00
2022-08-26T08:27:39.654Z,11.00
2022-08-26T08:30:08.657Z,12.67
2022-08-26T08:32:40.124Z,13.00
2022-08-26T08:35:10.861Z,11.00
2022-08-26T08:37:39.557Z,12.00
2022-08-26T08:40:09.156Z,11.00
2022-08-26T08:42:43.808Z,12.00
2022-08-26T08:45:15.563Z,12.00
2022-08-26T08:47:51.732Z,11.00
2022-08-26T08:50:37.262Z,12.33
2022-08-26T08:53:05.812Z,9.00
2022-08-26T08:55:44.362Z,13.00
2022-08-26T08:58:19.203Z,11.33
2022-08-26T09:00:50.840Z,12.00
2022-08-26T09:03:29.779Z,10.33
2022-08-26T09:06:00.347Z,12.00
2022-08-26T09:08:32.462Z,12.00
2022-08-26T09:11:01.622Z,13.33
2022-08-26T09:13:31.784Z,11.00
2022-08-26T09:16:13.874Z,12.00
2022-08-26T09:18:51.805Z,9.00
2022-08-26T09:21:23.511Z,10.00
2022-08-26T09:23:55.698Z,10.67
2022-08-26T09:26:42.417Z,11.00
2022-08-26T09:29:27.467Z,12.00
2022-08-26T09:32:13.671Z,11.00
2022-08-26T09:34:56.806Z,11.00
2022-08-26T09:37:36.809Z,11.00
2022-08-26T09:40:25.016Z,10.33
2022-08-26T09:43:06.934Z,9.33
2022-08-26T09:45:35.916Z,11.00
2022-08-26T09:48:04.006Z,11.67
2022-08-26T09:50:37.840Z,10.67
2022-08-26T09:53:09.867Z,9.00
2022-08-26T09:55:42.707Z,10.00
2022-08-26T09:58:14.726Z,11.00
2022-08-26T10:00:53.743Z,10.33
2022-08-26T10:03:27.390Z,9.00
2022-08-26T10:06:28.341Z,9.00
2022-08-26T10:08:59.161Z,10.00
2022-08-26T10:11:43.430Z,11.00
2022-08-26T10:14:17.293Z,9.00
2022-08-26T10:16:54.650Z,10.00
2022-08-26T10:19:40.223Z,10.00
2022-08-26T10:22:18.991Z,8.67
2022-08-26T10:24:55.169Z,8.67
2022-08-26T10:27:27.435Z,11.00
2022-08-26T10:30:02.146Z,9.00
2022-08-26T10:32:44.455Z,12.00
2022-08-26T10:35:13.834Z,9.00
2022-08-26T10:37:48.115Z,9.67
2022-08-26T10:40:27.649Z,11.33
2022-08-26T10:43:07.200Z,12.50
2022-08-26T10:45:42.773Z,10.00
2022-08-26T10:48:17.921Z,9.00
2022-08-26T10:50:47.602Z,11.00
2022-08-26T10:53:34.322Z,8.00
2022-08-26T10:56:06.029Z,10.00
2022-08-26T10:58:54.472Z,10.67
2022-08-26T11:01:44.314Z,11.00
2022-08-26T11:04:22.383Z,10.00
2022-08-26T11:07:10.618Z,10.00
2022-08-26T11:09:46.313Z,10.00
2022-08-26T11:12:32.422Z,9.00
2022-08-26T11:15:01.392Z,12.00
2022-08-26T11:17:45.609Z,12.00
2022-08-26T11:20:22.646Z,9.33
2022-08-26T11:22:53.380Z,10.00
2022-08-26T11:25:29.643Z,9.00
2022-08-26T11:27:59.895Z,9.00
2022-08-26T11:30:40.007Z,8.00
2022-08-26T11:33:08.657Z,5.00
2022-08-26T11:35:37.492Z,7.67
2022-08-26T11:38:14.444Z,3.67
2022-08-26T11:40:42.256Z,7.00
2022-08-26T11:43:22.037Z,3.67
2022-08-26T11:46:02.217Z,3.00
2022-08-26T11:48:33.543Z,2.00
2022-08-26T11:51:06.667Z,10.33
2022-08-26T11:53:41.059Z,10.00
2022-08-26T11:56:17.567Z,7.00
2022-08-26T11:58:47.110Z,4.67
2022-08-26T12:01:25.587Z,3.00
2022-08-26T12:03:53.974Z,1.00
2022-08-26T12:09:00.081Z,4.00
2022-08-26T12:11:31.150Z,2.00
2022-08-26T12:14:16.286Z,5.00
2022-08-26T12:16:44.175Z,2.00
2022-08-26T12:19:27.477Z,3.00
2022-08-26T12:22:04.299Z,2.00
2022-08-26T12:24:32.213Z,2.33
2022-08-26T12:27:24.565Z,3.33
2022-08-26T12:30:08.903Z,2.00
2022-08-26T12:32:57.317Z,2.00
2022-08-26T12:35:29.505Z,4.00
2022-08-26T12:37:57.807Z,1.00
2022-08-26T12:40:31.367Z,3.00
2022-08-26T12:43:00.699Z,3.00
2022-08-26T12:45:31.552Z,2.00
2022-08-26T12:48:01.474Z,4.00
2022-08-26T12:50:34.140Z,1.00
2022-08-26T12:53:04.635Z,2.00
2022-08-26T12:55:38.388Z,3.50
2022-08-26T12:58:13.956Z,3.00
2022-08-26T13:00:43.091Z,2.00
2022-08-26T13:03:29.569Z,3.00
2022-08-26T13:06:16.524Z,3.00
2022-08-26T13:08:55.370Z,2.00
2022-08-26T13:11:28.259Z,1.50
2022-08-26T13:14:07.076Z,3.33
2022-08-26T13:16:35.623Z,2.00
2022-08-26T13:19:10.450Z,1.00
2022-08-26T13:21:47.926Z,1.00
2022-08-26T13:24:22.488Z,2.33
2022-08-26T13:26:51.245Z,3.00
2022-08-26T13:29:19.545Z,2.00
2022-08-26T13:31:49.031Z,2.00
2022-08-26T13:34:19.237Z,2.00
2022-08-26T13:36:47.681Z,3.00
2022-08-26T13:39:15.959Z,3.00
2022-08-26T13:41:43.824Z,3.67
2022-08-26T13:44:12.178Z,3.00
2022-08-26T13:46:40.371Z,3.00
2022-08-26T13:49:09.080Z,3.00
2022-08-26T13:51:49.833Z,3.00
2022-08-26T13:54:17.917Z,3.00
2022-08-26T13:56:46.004Z,3.00
2022-08-26T13:59:13.715Z,3.00
2022-08-26T14:01:41.706Z,3.00
2022-08-26T14:04:09.578Z,3.00
2022-08-26T14:06:37.470Z,1.00
2022-08-26T14:09:05.241Z,3.00
2022-08-26T14:11:41.232Z,1.00
2022-08-26T14:14:18.797Z,3.00
2022-08-26T14:16:59.084Z,3.33
2022-08-26T14:19:30.829Z,2.00
2022-08-26T14:22:01.039Z,2.00
2022-08-26T14:24:29.685Z,3.00
2022-08-26T14:26:57.687Z,3.00
2022-08-26T14:29:26.541Z,4.00
2022-08-26T14:31:56.352Z,1.00
2022-08-26T14:34:25.147Z,2.00
2022-08-26T14:36:53.114Z,1.00
2022-08-26T14:39:22.210Z,2.67
2022-08-26T14:41:53.743Z,4.00
2022-08-26T14:44:27.718Z,1.00
2022-08-26T14:46:55.643Z,3.00
2022-08-26T14:49:24.452Z,3.00
2022-08-26T14:51:52.396Z,2.33
2022-08-26T14:54:21.083Z,2.67
2022-08-26T14:56:48.909Z,3.00
2022-08-26T14:59:18.461Z,2.33
2022-08-26T15:01:46.522Z,2.00
2022-08-26T15:04:14.673Z,2.50
2022-08-26T15:06:42.587Z,11.00
2022-08-26T15:09:11.290Z,10.00
2022-08-26T15:11:39.076Z,12.00
2022-08-26T15:14:07.110Z,9.00
2022-08-26T15:16:35.025Z,8.00
2022-08-26T15:19:06.276Z,9.00
2022-08-26T15:21:35.041Z,12.33
2022-08-26T15:24:03.922Z,8.00
2022-08-26T15:26:32.561Z,10.00
2022-08-26T15:29:04.701Z,10.00
2022-08-26T15:31:33.503Z,8.00
2022-08-26T15:34:04.075Z,10.00
2022-08-26T15:36:32.399Z,8.00
2022-08-26T15:39:01.208Z,9.67
2022-08-26T15:41:29.750Z,9.00
2022-08-26T15:43:58.188Z,8.00
2022-08-26T15:46:26.093Z,8.67
2022-08-26T15:48:54.006Z,9.33
2022-08-26T15:51:23.706Z,8.00
2022-08-26T15:53:52.251Z,10.00
2022-08-26T15:56:20.076Z,8.67
2022-08-26T15:58:48.087Z,9.00
2022-08-26T16:01:18.150Z,9.00
2022-08-26T16:03:56.790Z,11.00
2022-08-26T16:06:27.438Z,9.67
2022-08-26T16:08:56.515Z,8.00
2022-08-26T16:11:25.488Z,9.00
2022-08-26T16:13:53.320Z,9.00
2022-08-26T16:16:21.543Z,12.00
2022-08-26T16:18:49.743Z,9.33
2022-08-26T16:21:19.592Z,9.00
2022-08-26T16:23:47.580Z,12.00
2022-08-26T16:26:19.571Z,10.00
2022-08-26T16:28:47.726Z,10.00
2022-08-26T16:31:16.417Z,9.00
2022-08-26T16:33:44.373Z,9.00
2022-08-26T16:36:12.600Z,10.00
2022-08-26T16:38:41.144Z,12.67
2022-08-26T16:41:09.541Z,17.67
2022-08-26T16:43:37.511Z,12.00
2022-08-26T16:46:06.475Z,12.00
2022-08-26T16:48:35.305Z,11.00
2022-08-26T16:51:03.467Z,11.00
2022-08-26T16:53:31.746Z,10.33
2022-08-26T16:55:59.612Z,11.00
2022-08-26T16:58:27.488Z,11.33
2022-08-26T17:00:56.128Z,11.00
2022-08-26T17:03:24.051Z,14.00
2022-08-26T17:05:51.886Z,18.00
2022-08-26T17:08:27.423Z,20.67
2022-08-26T17:10:58.833Z,13.00
2022-08-26T17:13:34.852Z,12.00
2022-08-26T17:16:05.420Z,11.00
2022-08-26T17:18:34.166Z,11.00
2022-08-26T17:21:03.673Z,13.00
2022-08-26T17:23:31.565Z,17.33
2022-08-26T17:25:59.412Z,17.33
2022-08-26T17:28:27.409Z,16.00
2022-08-26T17:30:56.509Z,15.67
2022-08-26T17:33:25.332Z,14.33
2022-08-26T17:35:54.051Z,19.00
2022-08-26T17:38:22.449Z,19.67
2022-08-26T17:40:50.484Z,13.33
2022-08-26T17:43:19.643Z,15.00
2022-08-26T17:45:47.708Z,12.00
2022-08-26T17:48:15.802Z,12.33
2022-08-26T17:50:45.478Z,11.00
2022-08-26T17:53:18.818Z,11.67
2022-08-26T17:55:48.060Z,14.67
2022-08-26T17:58:17.493Z,13.00
2022-08-26T18:00:48.290Z,12.00
2022-08-26T18:03:16.460Z,11.67
2022-08-26T18:05:47.261Z,14.67
2022-08-26T18:08:15.120Z,13.33
2022-08-26T18:10:43.919Z,14.50
2022-08-26T18:13:11.919Z,15.00
2022-08-26T18:15:40.384Z,16.00
2022-08-26T18:18:08.471Z,17.00
2022-08-26T18:20:37.838Z,15.00
2022-08-26T18:23:05.885Z,12.67
2022-08-26T18:25:34.019Z,14.00
2022-08-26T18:28:01.992Z,15.00
2022-08-26T18:30:29.899Z,15.00
2022-08-26T18:32:57.930Z,16.00
2022-08-26T18:35:28.610Z,15.00
2022-08-26T18:37:57.579Z,13.00
2022-08-26T18:40:29.554Z,15.00
2022-08-26T18:42:57.453Z,12.00
2022-08-26T18:45:25.897Z,14.00
2022-08-26T18:47:53.754Z,13.00
2022-08-26T18:50:22.011Z,13.00
2022-08-26T18:52:49.791Z,14.00
2022-08-26T18:55:17.785Z,14.00
2022-08-26T18:57:45.570Z,15.00
2022-08-26T19:00:13.960Z,13.00
2022-08-26T19:02:42.001Z,16.00
2022-08-26T19:05:14.741Z,12.00
2022-08-26T19:07:44.449Z,15.00
2022-08-26T19:10:16.416Z,15.00
2022-08-26T19:12:44.279Z,15.00
2022-08-26T19:15:12.354Z,13.00
2022-08-26T19:17:40.424Z,13.67
2022-08-26T19:20:09.096Z,12.00
2022-08-26T19:22:37.431Z,13.33
2022-08-26T19:25:05.664Z,16.00
2022-08-26T19:27:33.838Z,16.00
2022-08-26T19:30:01.707Z,14.00
2022-08-26T19:32:29.696Z,17.00
2022-08-26T19:34:57.643Z,11.00
2022-08-26T19:37:25.509Z,12.00
2022-08-26T19:39:53.610Z,13.33
2022-08-26T19:42:21.553Z,12.33
2022-08-26T19:45:07.545Z,12.00
2022-08-26T19:47:46.475Z,11.67
2022-08-26T19:50:16.741Z,11.00
2022-08-26T19:52:44.659Z,12.33
2022-08-26T19:55:13.838Z,14.00
2022-08-26T19:57:41.660Z,14.00
2022-08-26T20:00:15.107Z,15.33
2022-08-26T20:02:44.269Z,17.00
2022-08-26T20:05:13.128Z,16.33
2022-08-26T20:07:40.907Z,15.33
2022-08-26T20:10:11.400Z,16.67
2022-08-26T20:12:41.826Z,19.00
2022-08-26T20:15:11.099Z,17.67
2022-08-26T20:17:39.561Z,23.33
2022-08-26T20:20:33.569Z,24.67
2022-08-26T20:23:04.631Z,20.67
2022-08-26T20:25:33.345Z,14.67
2022-08-26T20:28:01.360Z,14.33
2022-08-26T20:30:29.202Z,15.67
2022-08-26T20:32:57.641Z,11.00
2022-08-26T20:35:25.482Z,15.00
2022-08-26T20:37:53.474Z,14.33
2022-08-26T20:40:22.572Z,13.33
2022-08-26T20:42:50.422Z,13.00
2022-08-26T20:45:18.356Z,15.33
2022-08-26T20:47:46.183Z,13.33
2022-08-26T20:50:14.373Z,14.00
2022-08-26T20:52:42.312Z,14.67
2022-08-26T20:55:11.928Z,14.33
2022-08-26T20:57:43.474Z,14.00
2022-08-26T21:00:13.529Z,12.00
2022-08-26T21:02:42.380Z,11.67
2022-08-26T21:05:10.634Z,13.00
2022-08-26T21:07:39.492Z,17.33
2022-08-26T21:10:07.498Z,16.00
2022-08-26T21:12:36.006Z,27.00
2022-08-26T21:15:04.902Z,16.33
2022-08-26T21:17:32.641Z,19.00
2022-08-26T21:20:00.429Z,16.33
2022-08-26T21:22:29.644Z,16.00
2022-08-26T21:24:57.595Z,14.33
2022-08-26T21:27:26.629Z,12.33
2022-08-26T21:29:56.154Z,14.67
2022-08-26T21:32:24.162Z,16.33
2022-08-26T21:34:56.141Z,17.00
2022-08-26T21:37:24.705Z,14.33
2022-08-26T21:39:53.702Z,14.67
2022-08-26T21:42:21.839Z,14.33
2022-08-26T21:44:52.738Z,15.00
2022-08-26T21:47:22.123Z,12.33
2022-08-26T21:49:50.413Z,11.33
2022-08-26T21:52:18.536Z,13.33
2022-08-26T21:54:49.605Z,11.00
2022-08-26T21:57:18.437Z,12.33
2022-08-26T21:59:46.359Z,15.00
2022-08-26T22:02:14.230Z,16.00
2022-08-26T22:04:45.634Z,13.00
2022-08-26T22:07:17.378Z,17.33
2022-08-26T22:09:45.495Z,15.67
2022-08-26T22:12:14.534Z,15.33
2022-08-26T22:14:42.718Z,15.33
2022-08-26T22:17:10.468Z,15.00
2022-08-26T22:19:45.768Z,17.33
2022-08-26T22:22:14.980Z,13.67
2022-08-26T22:24:43.580Z,15.00
2022-08-26T22:27:12.217Z,12.33
2022-08-26T22:29:40.677Z,13.67
2022-08-26T22:32:09.196Z,12.67
2022-08-26T22:34:37.119Z,13.67
2022-08-26T22:37:05.354Z,9.67
2022-08-26T22:39:33.374Z,16.00
2022-08-26T22:42:01.187Z,13.33
2022-08-26T22:44:29.011Z,11.33
2022-08-26T22:46:57.237Z,16.00
2022-08-26T22:49:25.196Z,13.00
2022-08-26T22:51:53.106Z,16.00
2022-08-26T22:54:21.061Z,15.33
2022-08-26T22:56:48.955Z,11.33
2022-08-26T22:59:17.019Z,14.00
2022-08-26T23:01:46.425Z,15.50
2022-08-26T23:04:14.631Z,14.67
2022-08-26T23:06:47.703Z,10.33
2022-08-26T23:09:18.347Z,12.00
2022-08-26T23:11:47.527Z,13.00
2022-08-26T23:14:17.070Z,12.00
2022-08-26T23:16:45.024Z,13.00
2022-08-26T23:19:14.354Z,14.00
2022-08-26T23:21:42.254Z,13.00
2022-08-26T23:24:10.142Z,12.67
2022-08-26T23:26:38.977Z,16.00
2022-08-26T23:29:07.501Z,14.50
2022-08-26T23:31:36.499Z,14.33
2022-08-26T23:34:22.957Z,13.00
2022-08-26T23:36:52.870Z,14.67
2022-08-26T23:39:22.213Z,12.00
2022-08-26T23:41:50.037Z,12.33
2022-08-26T23:44:19.745Z,11.00
2022-08-26T23:46:47.712Z,12.67
2022-08-26T23:49:15.681Z,16.00
2022-08-26T23:52:02.190Z,15.00
2022-08-26T23:54:31.616Z,14.00
2022-08-26T23:56:59.765Z,14.67
2022-08-26T23:59:27.565Z,14.00
